Time;durP1;ratioP1;P1;durP2;ratioP2;P2;SDS_P1;SDS_P2;PMS_P1;PMS_P2;Temp;Humidity;BMP_temperature;BMP_pressure;BME280_temperature;BME280_humidity;BME280_pressure;Samples;Min_cycle;Max_cycle;Signal;HPM_P1;HPM_P2
2023/05/01 07:22:59;;;;;;;12.15;7.43;;;;;;;-145.79;59.57;77610.44;5213908;28;20372;-76
2023/05/01 07:25:31;;;;;;;14.70;8.13;;;;;;;-145.79;59.54;77616.81;5214210;28;20104;-76
2023/05/01 07:28:04;;;;;;;10.40;7.10;;;;;;;-145.79;59.38;77606.19;5214593;28;20113;-76
2023/05/01 07:30:36;;;;;;;8.18;7.35;;;;;;;-145.79;59.22;77612.56;5213671;28;20022;-76
2023/05/01 07:33:07;;;;;;;8.73;6.95;;;;;;;-145.79;58.90;77604.09;5214109;28;20022;-76
2023/05/01 07:35:38;;;;;;;9.65;7.63;;;;;;;-145.79;59.23;77595.59;5212577;28;20466;-76
2023/05/01 07:38:12;;;;;;;10.50;7.22;;;;;;;-145.79;58.99;77574.41;5214229;28;20041;-77
2023/05/01 07:40:44;;;;;;;9.50;7.70;;;;;;;-145.79;58.25;77563.81;5213951;28;20079;-76
2023/05/01 07:43:15;;;;;;;9.93;6.43;;;;;;;-145.79;57.50;77559.56;5213541;28;20023;-77
2023/05/01 07:45:57;;;;;;;8.55;6.40;;;;;;;-145.79;57.37;77553.22;5214093;28;20030;-76
2023/05/01 07:48:28;;;;;;;9.20;7.18;;;;;;;-145.79;57.49;77546.84;5214214;28;20034;-77
2023/05/01 07:51:03;;;;;;;9.63;7.07;;;;;;;-145.79;57.34;77536.25;5212271;28;20355;-77
2023/05/01 07:53:34;;;;;;;9.00;6.67;;;;;;;-145.79;56.96;77536.25;5215826;28;20419;-77
2023/05/01 07:56:07;;;;;;;9.73;6.90;;;;;;;-145.79;57.04;77534.13;5225129;28;20041;-76
2023/05/01 07:58:40;;;;;;;9.55;6.70;;;;;;;-145.79;57.08;77525.66;5213145;28;20026;-77
2023/05/01 08:01:12;;;;;;;7.25;6.55;;;;;;;-145.79;56.47;77521.41;5213615;28;20489;-77
2023/05/01 08:03:43;;;;;;;9.38;6.53;;;;;;;-145.79;56.48;77508.69;5212960;28;20030;-76
2023/05/01 08:06:14;;;;;;;8.20;6.68;;;;;;;-145.79;56.71;77495.97;5213503;28;20117;-76
2023/05/01 08:08:45;;;;;;;9.82;7.07;;;;;;;-145.79;56.28;77485.38;5202223;28;20023;-76
2023/05/01 08:11:17;;;;;;;10.73;7.38;;;;;;;-145.79;56.71;77476.91;5192892;28;20105;-77
2023/05/01 08:13:48;;;;;;;8.70;7.80;;;;;;;-145.79;56.62;77472.66;5213587;28;20542;-77
2023/05/01 08:16:20;;;;;;;11.82;7.80;;;;;;;-145.79;57.01;77476.91;5213710;28;20372;-77
2023/05/01 08:18:54;;;;;;;11.13;8.57;;;;;;;-145.79;57.05;77474.78;5212567;28;20027;-79
2023/05/01 08:21:26;;;;;;;9.20;7.85;;;;;;;-145.79;57.58;77466.31;5212486;28;20431;-78
2023/05/01 08:23:57;;;;;;;12.05;8.77;;;;;;;-145.79;56.98;77457.81;5213839;28;20018;-77
2023/05/01 08:26:29;;;;;;;8.07;6.82;;;;;;;-145.79;56.47;77449.34;5195147;28;20050;-80
2023/05/01 08:29:00;;;;;;;11.65;7.80;;;;;;;-145.79;56.45;77440.88;5192787;28;20028;-76
2023/05/01 08:31:31;;;;;;;9.88;8.10;;;;;;;-145.79;56.38;77428.16;5197603;28;20449;-76
2023/05/01 08:34:03;;;;;;;10.30;8.60;;;;;;;-145.79;56.13;77415.44;5179564;28;20088;-75
2023/05/01 08:36:35;;;;;;;11.25;8.05;;;;;;;-145.79;55.17;77415.44;5185863;28;20049;-74
2023/05/01 08:39:06;;;;;;;9.52;7.57;;;;;;;-145.79;55.61;77419.66;5188790;28;20019;-75
2023/05/01 08:41:38;;;;;;;8.80;7.20;;;;;;;-145.79;55.33;77394.22;5187058;28;20045;-74
2023/05/01 08:44:10;;;;;;;7.85;7.03;;;;;;;-145.79;54.83;77385.75;5197996;28;20040;-75
2023/05/01 08:46:56;;;;;;;10.52;7.75;;;;;;;-145.79;55.33;77381.50;5192895;28;20438;-74
2023/05/01 08:49:32;;;;;;;9.13;7.38;;;;;;;-145.79;54.87;77373.03;5199552;28;20105;-74
2023/05/01 08:52:05;;;;;;;8.52;7.63;;;;;;;-145.79;54.36;77360.31;5199551;28;20030;-74
2023/05/01 08:54:40;;;;;;;9.38;7.30;;;;;;;-145.79;53.16;77368.78;5199040;28;20105;-74
2023/05/01 08:57:12;;;;;;;8.57;7.40;;;;;;;-145.79;52.63;77364.56;5199288;28;20128;-74
2023/05/01 08:59:44;;;;;;;7.35;6.60;;;;;;;-145.79;52.54;77362.44;5192468;28;20117;-74
2023/05/01 09:02:17;;;;;;;8.27;7.07;;;;;;;-145.79;53.06;77377.28;5180032;28;20061;-74
2023/05/01 09:04:50;;;;;;;9.68;7.82;;;;;;;-145.79;53.17;77390.00;5179298;28;20031;-74
2023/05/01 09:07:22;;;;;;;8.07;7.03;;;;;;;-145.79;53.55;77360.31;5184069;28;20045;-74
2023/05/01 09:09:53;;;;;;;7.70;6.95;;;;;;;-145.79;53.53;77347.59;5189555;28;20018;-75
2023/05/01 09:12:25;;;;;;;9.00;8.18;;;;;;;-145.79;53.46;77347.59;5184798;28;20035;-74
2023/05/01 09:14:57;;;;;;;8.98;8.10;;;;;;;-145.79;53.60;77339.13;5184760;28;20074;-73
2023/05/01 09:17:30;;;;;;;20.15;18.10;;;;;;;-145.79;53.63;77313.69;5181298;28;20056;-75
2023/05/01 09:20:05;;;;;;;8.80;7.90;;;;;;;-145.79;53.41;77305.22;5179522;28;20035;-75
2023/05/01 09:22:36;;;;;;;11.15;7.55;;;;;;;-145.79;52.83;77300.97;5191359;28;20128;-76
2023/05/01 09:25:09;;;;;;;7.38;6.68;;;;;;;-145.79;53.14;77296.72;5199076;28;20121;-76
2023/05/01 09:27:41;;;;;;;9.07;8.18;;;;;;;-145.79;53.62;77322.16;5198619;28;20488;-76
2023/05/01 09:30:35;;;;;;;11.25;8.00;;;;;;;-145.79;53.82;77296.72;5198141;28;20035;-76
2023/05/01 09:33:11;;;;;;;9.30;8.00;;;;;;;-145.79;53.57;77296.72;5191969;28;20019;-76
2023/05/01 09:35:53;;;;;;;13.02;8.45;;;;;;;-145.79;53.58;77296.72;5178154;28;20042;-76
2023/05/01 09:38:26;;;;;;;9.20;7.07;;;;;;;-145.79;52.73;77290.38;5178727;28;20046;-76
2023/05/01 09:41:04;;;;;;;9.00;7.38;;;;;;;-145.79;52.15;77277.66;5178799;28;20484;-76
2023/05/01 09:43:38;;;;;;;10.27;7.82;;;;;;;-145.79;51.65;77286.13;5177583;28;20018;-76
2023/05/01 09:46:10;;;;;;;10.43;9.35;;;;;;;-145.79;51.29;77292.50;5179129;28;20031;-77
2023/05/01 09:48:57;;;;;;;9.57;8.60;;;;;;;-145.79;51.78;77281.91;5198674;28;20045;-76
2023/05/01 09:51:31;;;;;;;8.38;7.53;;;;;;;-145.79;51.39;77250.09;5180504;28;20054;-76
2023/05/01 09:54:17;;;;;;;7.90;7.10;;;;;;;-145.79;50.39;77222.53;5178420;28;20054;-76
2023/05/01 09:56:48;;;;;;;8.10;7.30;;;;;;;-145.79;50.54;77216.19;5177632;28;20023;-75
2023/05/01 09:59:20;;;;;;;11.57;8.32;;;;;;;-145.79;50.99;77220.44;5178132;28;20536;-76
2023/05/01 10:01:51;;;;;;;12.05;9.57;;;;;;;-145.79;51.18;77207.72;5178144;28;20086;-76
2023/05/01 10:04:33;;;;;;;9.60;8.50;;;;;;;-145.79;51.33;77207.72;5187995;28;20097;-77
2023/05/01 10:07:12;;;;;;;11.38;8.15;;;;;;;-145.79;51.42;77216.19;5195868;28;20505;-76
2023/05/01 10:09:43;;;;;;;8.95;7.90;;;;;;;-145.79;51.26;77207.72;5198530;28;20033;-76
2023/05/01 10:12:25;;;;;;;9.63;8.68;;;;;;;-145.79;50.42;77211.94;5197593;28;20022;-76
2023/05/01 10:14:57;;;;;;;9.23;7.70;;;;;;;-145.79;50.25;77197.09;5198036;28;20462;-76
2023/05/01 10:17:30;;;;;;;8.50;7.38;;;;;;;-145.79;49.54;77207.72;5197237;28;20018;-76
2023/05/01 10:20:01;;;;;;;9.27;6.90;;;;;;;-145.79;49.43;77201.34;5197895;28;20026;-76
2023/05/01 10:22:32;;;;;;;8.95;7.80;;;;;;;-145.79;49.65;77184.41;5197414;28;20515;-76
2023/05/01 10:25:08;;;;;;;11.48;7.80;;;;;;;-145.79;48.88;77209.81;5182665;28;20027;-76
2023/05/01 10:27:40;;;;;;;11.23;7.55;;;;;;;-145.79;49.00;77205.59;5195999;28;20033;-77
2023/05/01 10:30:13;;;;;;;11.90;8.48;;;;;;;-145.79;49.16;77197.09;5198097;28;20031;-75
2023/05/01 10:32:44;;;;;;;13.95;7.78;;;;;;;-145.79;49.57;77182.28;5197102;28;20030;-74
2023/05/01 10:35:24;;;;;;;10.52;8.20;;;;;;;-145.79;49.19;77167.44;5197618;28;20026;-76
2023/05/01 10:38:04;;;;;;;9.25;7.38;;;;;;;-145.79;49.49;77182.28;5197838;28;20030;-76
2023/05/01 10:40:38;;;;;;;17.52;12.35;;;;;;;-145.79;49.95;77188.63;5194406;28;20031;-76
2023/05/01 10:43:25;;;;;;;10.65;8.02;;;;;;;-145.79;50.19;77192.88;5177663;28;20038;-76
2023/05/01 10:46:25;;;;;;;8.35;7.40;;;;;;;-145.79;50.05;77178.03;5195531;28;20382;-75
2023/05/01 10:48:57;;;;;;;9.35;8.18;;;;;;;-145.79;50.08;77186.50;5195748;28;20034;-76
2023/05/01 10:51:28;;;;;;;10.02;7.47;;;;;;;-145.79;50.49;77186.50;5209814;28;20049;-76
2023/05/01 10:54:11;;;;;;;8.70;7.80;;;;;;;-145.79;50.53;77186.50;5193201;28;20049;-72
2023/05/01 10:56:43;;;;;;;11.93;8.20;;;;;;;-145.79;50.39;77190.75;5192268;28;20119;-69
2023/05/01 10:59:14;;;;;;;10.80;8.60;;;;;;;-145.79;49.97;77211.94;5191554;28;20026;-70
2023/05/01 11:01:50;;;;;;;9.65;8.23;;;;;;;-145.79;50.28;77218.31;5196375;28;20486;-69
2023/05/01 11:04:57;;;;;;;11.43;8.52;;;;;;;-145.79;50.23;77190.75;5194693;28;20026;-69
2023/05/01 11:07:30;;;;;;;;;;;;;;;-145.79;50.59;77175.91;5134569;29;20032;-70
2023/05/01 11:10:01;;;;;;;12.93;8.32;;;;;;;-145.79;50.20;77175.91;5187225;28;20274;-69
2023/05/01 11:12:45;;;;;;;9.73;7.93;;;;;;;-145.79;49.32;77186.50;5177961;28;20041;-69
2023/05/01 11:15:26;;;;;;;10.10;8.10;;;;;;;-145.79;49.69;77173.78;5187447;28;20034;-69
2023/05/01 11:18:02;;;;;;;10.35;8.23;;;;;;;-145.79;49.21;77182.28;5197560;28;20018;-69
2023/05/01 11:20:36;;;;;;;9.55;8.48;;;;;;;-145.79;49.17;77197.09;5195914;28;20109;-70
2023/05/01 11:23:15;;;;;;;8.02;7.22;;;;;;;-145.79;49.43;77186.50;5196864;28;20144;-69
2023/05/01 11:25:47;;;;;;;13.00;7.80;;;;;;;-145.79;49.26;77190.75;5176681;28;20019;-69
2023/05/01 11:28:20;;;;;;;10.35;9.32;;;;;;;-145.79;48.99;77199.22;5175885;28;20076;-69
2023/05/01 11:30:52;;;;;;;8.98;8.07;;;;;;;-145.79;48.80;77203.47;5176893;28;20039;-69
2023/05/01 11:33:24;;;;;;;9.23;7.80;;;;;;;-145.79;49.13;77195.00;5177567;28;20478;-69
2023/05/01 11:35:58;;;;;;;10.73;7.60;;;;;;;-145.79;48.90;77182.28;5175973;28;20506;-70
2023/05/01 11:38:29;;;;;;;9.23;8.32;;;;;;;-145.79;48.48;77156.84;5177768;28;20027;-69
2023/05/01 11:41:03;;;;;;;9.55;7.07;;;;;;;-145.79;48.02;77156.84;5176428;28;20027;-70
2023/05/01 11:43:48;;;;;;;12.32;7.75;;;;;;;-145.79;47.54;77146.25;5175952;28;20061;-69
2023/05/01 11:46:37;;;;;;;10.15;6.93;;;;;;;-145.79;46.20;77144.13;5189570;28;20027;-69
2023/05/01 11:49:10;;;;;;;7.93;7.13;;;;;;;-145.79;46.10;77122.94;5189338;28;20019;-70
2023/05/01 11:51:41;;;;;;;11.45;6.40;;;;;;;-145.79;45.58;77101.72;5176425;28;20054;-70
2023/05/01 11:54:13;;;;;;;28.35;24.90;;;;;;;-145.79;44.80;77084.78;5190922;28;20135;-70
2023/05/01 11:56:44;;;;;;;10.02;6.78;;;;;;;-145.79;44.80;77097.50;5183258;28;20109;-70
2023/05/01 11:59:15;;;;;;;11.18;6.82;;;;;;;-145.79;44.66;77093.25;5196698;28;20034;-69
2023/05/01 12:01:47;;;;;;;8.25;6.40;;;;;;;-145.79;45.06;77080.53;5196947;28;20022;-70
2023/05/01 12:04:26;;;;;;;9.43;6.43;;;;;;;-145.79;45.43;77063.59;5195817;28;20070;-69
2023/05/01 12:06:57;;;;;;;9.82;8.13;;;;;;;-145.79;45.67;77067.81;5182894;28;20041;-70
2023/05/01 12:09:29;;;;;;;10.20;7.50;;;;;;;-145.79;46.36;77067.81;5179446;28;20101;-70
2023/05/01 12:12:02;;;;;;;8.88;7.13;;;;;;;-145.79;46.68;77072.06;5179108;28;20031;-69
2023/05/01 12:14:33;;;;;;;10.82;7.93;;;;;;;-145.79;46.44;77050.88;5181072;28;20371;-70
2023/05/01 12:17:05;;;;;;;8.98;7.78;;;;;;;-145.79;46.07;77082.66;5182678;28;20072;-70
2023/05/01 12:19:47;;;;;;;115.20;102.85;;;;;;;-145.79;46.50;77036.03;5179741;28;20037;-69
2023/05/01 12:22:19;;;;;;;10.35;7.50;;;;;;;-145.79;45.37;77025.44;5179383;28;20047;-69
2023/05/01 12:24:54;;;;;;;12.60;7.38;;;;;;;-145.79;44.53;77031.78;5197107;28;20361;-70
2023/05/01 12:27:25;;;;;;;9.05;6.57;;;;;;;-145.79;44.02;77025.44;5199903;28;20050;-70
2023/05/01 12:29:57;;;;;;;7.22;6.53;;;;;;;-145.79;43.97;77038.16;5199609;28;20508;-70
2023/05/01 12:32:30;;;;;;;8.65;6.45;;;;;;;-145.79;43.84;77016.94;5199068;28;20034;-68
2023/05/01 12:35:14;;;;;;;9.38;7.88;;;;;;;-145.79;43.34;77016.94;5200163;28;20069;-68
2023/05/01 12:37:46;;;;;;;8.13;5.00;;;;;;;-145.79;42.28;76997.88;5199593;28;20037;-69
2023/05/01 12:40:17;;;;;;;6.32;4.68;;;;;;;-145.79;41.06;77008.47;5189437;28;20019;-69
2023/05/01 12:42:56;;;;;;;10.70;5.47;;;;;;;-145.79;41.68;77021.19;5187688;28;20041;-69
2023/05/01 12:45:28;;;;;;;5.25;4.75;;;;;;;-145.79;41.80;76991.53;5192875;28;20424;-69
2023/05/01 12:47:59;;;;;;;7.18;5.35;;;;;;;-145.79;41.40;76985.16;5239098;28;20030;-69
2023/05/01 12:50:36;;;;;;;7.57;5.00;;;;;;;-145.79;41.36;76955.50;5196708;28;20466;-69
2023/05/01 12:53:08;;;;;;;9.88;6.13;;;;;;;-145.79;41.42;76980.94;5196554;28;20050;-69
2023/05/01 12:55:47;;;;;;;11.98;6.88;;;;;;;-145.79;43.39;76978.81;5186839;28;20026;-69
2023/05/01 12:58:18;;;;;;;9.90;6.32;;;;;;;-145.79;43.53;76974.56;5193250;28;20030;-69
2023/05/01 13:00:54;;;;;;;8.20;6.78;;;;;;;-145.79;43.29;76989.41;5191794;28;20053;-69
2023/05/01 13:03:27;;;;;;;9.65;6.22;;;;;;;-145.79;42.90;76972.44;5198100;28;20543;-69
2023/05/01 13:06:01;;;;;;;8.75;6.35;;;;;;;-145.79;42.17;76953.38;5198009;28;20041;-69
2023/05/01 13:08:38;;;;;;;10.27;6.82;;;;;;;-145.79;42.72;76957.59;5196257;28;20022;-69
2023/05/01 13:11:16;;;;;;;7.72;5.90;;;;;;;-145.79;42.04;76930.06;5197894;28;20152;-71
2023/05/01 13:13:48;;;;;;;9.52;6.15;;;;;;;-145.79;42.23;76936.41;5195307;28;20029;-69
2023/05/01 13:16:20;;;;;;;8.93;5.43;;;;;;;-145.79;41.54;76919.47;5197429;28;20031;-69
2023/05/01 13:18:52;;;;;;;7.28;5.95;;;;;;;-145.79;40.56;76930.06;5193039;28;20030;-71
2023/05/01 13:21:24;;;;;;;7.85;5.60;;;;;;;-145.79;40.40;76938.53;5187428;28;20054;-68
2023/05/01 13:24:01;;;;;;;6.18;4.43;;;;;;;-145.79;40.15;76970.31;5194328;28;20088;-67
2023/05/01 13:26:34;;;;;;;9.52;5.82;;;;;;;-145.79;41.62;76949.13;5177974;28;20035;-70
2023/05/01 13:29:15;;;;;;;5.80;5.03;;;;;;;-145.79;40.73;76923.69;5196948;28;20031;-69
2023/05/01 13:31:46;;;;;;;8.00;5.53;;;;;;;-145.79;41.07;76961.84;5185716;28;20379;-72
2023/05/01 13:34:28;;;;;;;5.28;4.78;;;;;;;-145.79;40.97;76953.38;5176810;28;20046;-70
2023/05/01 13:37:00;;;;;;;7.15;5.93;;;;;;;-145.79;39.61;76957.59;5178042;28;20039;-71
2023/05/01 13:39:32;;;;;;;6.55;5.13;;;;;;;-145.79;40.56;76942.78;5177086;28;20043;-71
2023/05/01 13:42:05;;;;;;;8.75;4.75;;;;;;;-145.79;39.87;76902.50;5178148;28;20031;-70
2023/05/01 13:45:17;;;;;;;7.07;4.57;;;;;;;-145.79;39.33;76894.03;5193300;28;20037;-70
2023/05/01 13:47:50;;;;;;;7.00;4.40;;;;;;;-145.79;39.04;76908.88;5204912;23;20069;-68
2023/05/01 13:50:28;;;;;;;6.13;3.08;;;;;;;-145.79;38.95;76949.13;5173357;28;20407;-67
2023/05/01 13:53:00;;;;;;;4.07;2.70;;;;;;;-145.79;38.29;76955.50;5175251;28;20042;-68
2023/05/01 13:55:31;;;;;;;5.38;3.33;;;;;;;-145.79;38.58;76963.97;5175815;28;20023;-68
2023/05/01 13:58:08;;;;;;;4.32;3.53;;;;;;;-145.79;39.15;76991.53;5175789;28;20113;-70
2023/05/01 14:00:40;;;;;;;3.00;2.70;;;;;;;-145.79;38.48;77002.13;5174977;28;20069;-68
2023/05/01 14:03:14;;;;;;;3.55;2.65;;;;;;;-145.79;38.69;77014.84;5235043;28;20444;-68
2023/05/01 14:05:49;;;;;;;3.05;1.92;;;;;;;-145.79;38.45;77025.44;5177358;28;20027;-68
2023/05/01 14:08:25;;;;;;;4.25;2.45;;;;;;;-145.79;38.60;77019.06;5217089;28;20036;-67
2023/05/01 14:10:57;;;;;;;3.70;2.00;;;;;;;-145.79;38.68;77014.84;5180958;28;20074;-68
2023/05/01 14:13:29;;;;;;;5.72;1.92;;;;;;;-145.79;38.30;77004.25;5175512;28;20058;-69
2023/05/01 14:16:09;;;;;;;4.10;2.20;;;;;;;-145.79;38.20;77019.06;5176314;28;20035;-68
2023/05/01 14:18:45;;;;;;;3.80;2.13;;;;;;;-145.79;38.49;77019.06;5175211;28;20038;-67
2023/05/01 14:21:17;;;;;;;4.07;2.03;;;;;;;-145.79;38.14;77042.38;5175626;28;20023;-68
2023/05/01 14:23:51;;;;;;;5.55;2.22;;;;;;;-145.79;38.95;77023.31;5175343;28;20031;-69
2023/05/01 14:26:23;;;;;;;2.72;2.10;;;;;;;-145.79;38.48;76991.53;5176870;28;20104;-69
2023/05/01 14:28:54;;;;;;;5.57;2.10;;;;;;;-145.79;38.64;76976.69;5175189;28;20030;-70
2023/05/01 14:31:28;;;;;;;4.10;2.17;;;;;;;-145.79;37.61;76955.50;5174398;28;20045;-69
2023/05/01 14:34:02;;;;;;;5.43;2.28;;;;;;;-145.79;37.88;76940.66;5176641;28;20060;-67
2023/05/01 14:36:34;;;;;;;3.63;2.07;;;;;;;-145.79;37.59;76957.59;5176542;28;20389;-67
2023/05/01 14:39:05;;;;;;;3.47;1.95;;;;;;;-145.79;36.97;76957.59;5175490;28;20045;-68
2023/05/01 14:41:41;;;;;;;5.40;2.47;;;;;;;-145.79;37.52;76921.59;5176335;28;20465;-65
2023/05/01 14:44:18;;;;;;;3.13;2.00;;;;;;;-145.79;37.36;76923.69;5176410;28;20065;-68
2023/05/01 14:46:50;;;;;;;2.88;2.15;;;;;;;-145.79;37.54;76957.59;5175130;28;20092;-67
2023/05/01 14:49:23;;;;;;;5.82;2.80;;;;;;;-145.79;38.28;76987.28;5175849;28;20051;-67
2023/05/01 14:51:57;;;;;;;3.38;2.45;;;;;;;-145.79;39.02;77016.94;5175814;28;20058;-68
2023/05/01 14:54:41;;;;;;;4.80;2.58;;;;;;;-145.79;39.01;77006.34;5176538;28;20031;-68
2023/05/01 14:57:13;;;;;;;5.22;2.42;;;;;;;-145.79;39.76;77021.19;5174365;28;20484;-66
2023/05/01 14:59:44;;;;;;;5.47;2.53;;;;;;;-145.79;39.82;77016.94;5175278;28;20035;-66
2023/05/01 15:02:16;;;;;;;6.07;2.97;;;;;;;-145.79;38.69;77004.25;5175455;28;20046;-66
2023/05/01 15:04:47;;;;;;;3.97;2.20;;;;;;;-145.79;38.60;77010.59;5175898;28;20102;-66
2023/05/01 15:07:18;;;;;;;5.45;2.65;;;;;;;-145.79;38.58;77016.94;5161311;28;20038;-66
2023/05/01 15:09:50;;;;;;;4.95;3.10;;;;;;;-145.79;38.97;76993.63;5171822;28;20034;-66
2023/05/01 15:12:22;;;;;;;4.50;3.10;;;;;;;-145.79;39.58;76987.28;5175055;28;20103;-65
2023/05/01 15:14:53;;;;;;;4.43;3.05;;;;;;;-145.79;39.95;77012.72;5175037;28;20049;-65
2023/05/01 15:17:25;;;;;;;5.03;3.20;;;;;;;-145.79;40.27;77021.19;5174366;28;20022;-67
2023/05/01 15:19:56;;;;;;;3.90;3.42;;;;;;;-145.79;41.07;77042.38;5175175;28;20469;-67
2023/05/01 15:22:28;;;;;;;4.15;3.47;;;;;;;-145.79;41.28;77038.16;5174326;28;20034;-66
2023/05/01 15:25:02;;;;;;;4.70;3.60;;;;;;;-145.79;41.45;77014.84;5174793;28;20504;-67
2023/05/01 15:27:34;;;;;;;4.43;3.70;;;;;;;-145.79;41.55;76985.16;5174411;28;20054;-68
2023/05/01 15:30:06;;;;;;;4.72;3.50;;;;;;;-145.79;41.87;77006.34;5176235;28;20050;-67
2023/05/01 15:32:37;;;;;;;7.45;5.60;;;;;;;-145.79;41.98;77000.00;5176818;28;20045;-67
2023/05/01 15:35:08;;;;;;;9.40;4.60;;;;;;;-145.79;42.02;77019.06;5176335;28;20018;-69
2023/05/01 15:37:40;;;;;;;8.27;7.47;;;;;;;-145.79;41.98;77016.94;5176046;28;20091;-67
2023/05/01 15:40:11;;;;;;;6.18;5.03;;;;;;;-145.79;42.26;77012.72;5176166;28;20031;-67
2023/05/01 15:42:46;;;;;;;6.63;4.35;;;;;;;-145.79;42.26;76991.53;5177251;28;20038;-67
2023/05/01 15:45:18;;;;;;;4.40;4.00;;;;;;;-145.79;42.58;77021.19;5181703;28;20038;-68
2023/05/01 15:47:50;;;;;;;5.20;4.07;;;;;;;-145.79;42.63;77040.25;5179003;28;20080;-67
2023/05/01 15:50:22;;;;;;;7.38;5.20;;;;;;;-145.79;42.51;77021.19;5179374;28;20647;-67
2023/05/01 15:52:53;;;;;;;5.78;5.00;;;;;;;-145.79;43.23;77023.31;5180641;28;20034;-67
2023/05/01 15:55:25;;;;;;;5.18;4.55;;;;;;;-145.79;43.35;77046.63;5179419;28;20072;-68
2023/05/01 15:57:56;;;;;;;6.05;5.10;;;;;;;-145.79;43.62;77052.97;5180453;28;20033;-68
2023/05/01 16:00:28;;;;;;;8.30;5.43;;;;;;;-145.79;43.87;77076.31;5180346;28;20029;-68
2023/05/01 16:03:00;;;;;;;6.05;5.45;;;;;;;-145.79;43.48;77063.59;5178552;28;20118;-67
2023/05/01 16:05:31;;;;;;;6.97;5.07;;;;;;;-145.79;43.48;77072.06;5180001;28;20038;-67
2023/05/01 16:08:05;;;;;;;5.80;5.20;;;;;;;-145.79;43.08;77059.34;5180256;28;20486;-68
2023/05/01 16:10:36;;;;;;;6.13;5.30;;;;;;;-145.79;42.31;77076.31;5178930;28;20031;-68
2023/05/01 16:13:08;;;;;;;6.22;5.65;;;;;;;-145.79;42.24;77074.19;5180016;28;20027;-68
2023/05/01 16:15:39;;;;;;;5.97;5.45;;;;;;;-145.79;42.65;77072.06;5179966;28;20042;-68
2023/05/01 16:18:18;;;;;;;6.68;6.07;;;;;;;-145.79;43.23;77076.31;5178353;28;20030;-68
2023/05/01 16:20:53;;;;;;;6.95;6.22;;;;;;;-145.79;44.29;77118.69;5179370;28;20073;-67
2023/05/01 16:23:25;;;;;;;6.75;6.00;;;;;;;-145.79;44.29;77112.31;5178692;28;20030;-68
2023/05/01 16:25:56;;;;;;;10.57;9.57;;;;;;;-145.79;45.12;77139.88;5179528;28;20066;-66
2023/05/01 16:28:28;;;;;;;9.38;8.52;;;;;;;-145.79;46.19;77161.06;5179641;28;20011;-67
2023/05/01 16:30:59;;;;;;;8.23;7.53;;;;;;;-145.79;46.59;77161.06;5178895;28;20476;-67
2023/05/01 16:33:32;;;;;;;9.77;8.85;;;;;;;-145.79;46.86;77171.69;5179847;28;20058;-67
2023/05/01 16:36:03;;;;;;;10.18;8.52;;;;;;;-145.79;47.25;77197.09;5179329;28;20121;-67
2023/05/01 16:38:36;;;;;;;9.82;8.93;;;;;;;-145.79;47.75;77216.19;5178970;28;20162;-68
2023/05/01 16:41:16;;;;;;;10.45;9.27;;;;;;;-145.79;48.16;77211.94;5179446;28;20081;-69
2023/05/01 16:43:47;;;;;;;14.90;10.57;;;;;;;-145.79;48.52;77214.06;5178790;28;20045;-68
2023/05/01 16:46:19;;;;;;;11.38;9.70;;;;;;;-145.79;48.64;77218.31;5178343;28;20011;-68
2023/05/01 16:48:50;;;;;;;10.30;9.40;;;;;;;-145.79;49.08;77228.91;5179068;28;20097;-68
2023/05/01 16:51:22;;;;;;;11.48;10.45;;;;;;;-145.79;49.34;77233.16;5177686;28;20034;-68
2023/05/01 16:53:53;;;;;;;10.25;9.40;;;;;;;-145.79;49.67;77243.75;5179165;28;20459;-68
